sensor_id;sensor_type;location;lat;lon;timestamp;P1;durP1;ratioP1;P2;durP2;ratioP2
66739;SDS011;53653;52.188;8.602;2023-07-29T00:00:52;6.72;;;2.60;;
66739;SDS011;53653;52.188;8.602;2023-07-29T00:03:18;6.25;;;2.85;;
66739;SDS011;53653;52.188;8.602;2023-07-29T00:05:43;6.37;;;2.60;;
66739;SDS011;53653;52.188;8.602;2023-07-29T00:08:09;6.10;;;2.63;;
66739;SDS011;53653;52.188;8.602;2023-07-29T00:10:38;7.80;;;2.38;;
66739;SDS011;53653;52.188;8.602;2023-07-29T00:13:04;6.28;;;2.80;;
66739;SDS011;53653;52.188;8.602;2023-07-29T00:15:30;6.13;;;2.43;;
66739;SDS011;53653;52.188;8.602;2023-07-29T00:17:56;6.15;;;2.70;;
66739;SDS011;53653;52.188;8.602;2023-07-29T00:20:22;6.87;;;2.47;;
66739;SDS011;53653;52.188;8.602;2023-07-29T00:22:47;6.28;;;2.80;;
66739;SDS011;53653;52.188;8.602;2023-07-29T00:25:15;5.33;;;2.57;;
66739;SDS011;53653;52.188;8.602;2023-07-29T00:27:42;6.60;;;2.67;;
66739;SDS011;53653;52.188;8.602;2023-07-29T00:30:07;6.05;;;2.60;;
66739;SDS011;53653;52.188;8.602;2023-07-29T00:32:35;6.60;;;2.90;;
66739;SDS011;53653;52.188;8.602;2023-07-29T00:35:00;6.30;;;2.73;;
66739;SDS011;53653;52.188;8.602;2023-07-29T00:37:27;6.38;;;2.70;;
66739;SDS011;53653;52.188;8.602;2023-07-29T00:39:53;6.13;;;2.50;;
66739;SDS011;53653;52.188;8.602;2023-07-29T00:42:19;6.93;;;2.50;;
66739;SDS011;53653;52.188;8.602;2023-07-29T00:44:44;5.60;;;2.30;;
66739;SDS011;53653;52.188;8.602;2023-07-29T00:47:10;6.93;;;2.72;;
66739;SDS011;53653;52.188;8.602;2023-07-29T00:49:36;5.72;;;2.50;;
66739;SDS011;53653;52.188;8.602;2023-07-29T00:52:02;6.40;;;2.40;;
66739;SDS011;53653;52.188;8.602;2023-07-29T00:54:31;7.57;;;2.60;;
66739;SDS011;53653;52.188;8.602;2023-07-29T00:56:56;5.43;;;2.30;;
66739;SDS011;53653;52.188;8.602;2023-07-29T00:59:22;6.90;;;2.63;;
66739;SDS011;53653;52.188;8.602;2023-07-29T01:01:48;6.00;;;2.60;;
66739;SDS011;53653;52.188;8.602;2023-07-29T01:04:13;6.07;;;2.30;;
66739;SDS011;53653;52.188;8.602;2023-07-29T01:09:29;5.60;;;2.30;;
66739;SDS011;53653;52.188;8.602;2023-07-29T01:17:20;6.88;;;2.40;;
66739;SDS011;53653;52.188;8.602;2023-07-29T01:19:57;6.00;;;2.60;;
66739;SDS011;53653;52.188;8.602;2023-07-29T01:22:25;6.60;;;2.50;;
66739;SDS011;53653;52.188;8.602;2023-07-29T01:24:50;7.05;;;2.90;;
66739;SDS011;53653;52.188;8.602;2023-07-29T01:27:16;6.17;;;2.70;;
66739;SDS011;53653;52.188;8.602;2023-07-29T01:29:41;8.23;;;3.03;;
66739;SDS011;53653;52.188;8.602;2023-07-29T01:32:09;6.55;;;2.55;;
66739;SDS011;53653;52.188;8.602;2023-07-29T01:34:44;6.18;;;2.67;;
66739;SDS011;53653;52.188;8.602;2023-07-29T01:37:15;8.67;;;2.53;;
66739;SDS011;53653;52.188;8.602;2023-07-29T01:39:46;6.53;;;2.63;;
66739;SDS011;53653;52.188;8.602;2023-07-29T01:42:14;7.00;;;2.80;;
66739;SDS011;53653;52.188;8.602;2023-07-29T01:44:39;5.77;;;2.87;;
66739;SDS011;53653;52.188;8.602;2023-07-29T01:47:07;6.57;;;2.80;;
66739;SDS011;53653;52.188;8.602;2023-07-29T01:49:33;5.80;;;2.70;;
66739;SDS011;53653;52.188;8.602;2023-07-29T01:51:59;6.60;;;2.80;;
66739;SDS011;53653;52.188;8.602;2023-07-29T01:54:24;8.68;;;3.05;;
66739;SDS011;53653;52.188;8.602;2023-07-29T01:56:50;7.20;;;3.00;;
66739;SDS011;53653;52.188;8.602;2023-07-29T01:59:16;8.18;;;3.10;;
66739;SDS011;53653;52.188;8.602;2023-07-29T02:01:42;6.67;;;2.80;;
66739;SDS011;53653;52.188;8.602;2023-07-29T02:04:08;6.45;;;2.92;;
66739;SDS011;53653;52.188;8.602;2023-07-29T02:06:33;6.37;;;3.03;;
66739;SDS011;53653;52.188;8.602;2023-07-29T02:08:59;7.32;;;3.25;;
66739;SDS011;53653;52.188;8.602;2023-07-29T02:11:25;7.80;;;3.38;;
66739;SDS011;53653;52.188;8.602;2023-07-29T02:13:53;7.37;;;2.67;;
66739;SDS011;53653;52.188;8.602;2023-07-29T02:16:20;7.95;;;3.30;;
66739;SDS011;53653;52.188;8.602;2023-07-29T02:18:46;6.35;;;2.90;;
66739;SDS011;53653;52.188;8.602;2023-07-29T02:21:18;6.05;;;3.00;;
66739;SDS011;53653;52.188;8.602;2023-07-29T02:23:44;6.30;;;2.90;;
66739;SDS011;53653;52.188;8.602;2023-07-29T02:26:09;8.07;;;3.40;;
66739;SDS011;53653;52.188;8.602;2023-07-29T02:28:35;6.82;;;2.92;;
66739;SDS011;53653;52.188;8.602;2023-07-29T02:33:39;6.33;;;3.30;;
66739;SDS011;53653;52.188;8.602;2023-07-29T02:36:04;6.43;;;3.20;;
66739;SDS011;53653;52.188;8.602;2023-07-29T02:38:30;6.73;;;3.10;;
66739;SDS011;53653;52.188;8.602;2023-07-29T02:40:55;6.60;;;3.20;;
66739;SDS011;53653;52.188;8.602;2023-07-29T02:43:21;6.65;;;3.10;;
66739;SDS011;53653;52.188;8.602;2023-07-29T02:45:46;6.43;;;3.27;;
66739;SDS011;53653;52.188;8.602;2023-07-29T02:48:12;6.43;;;3.17;;
66739;SDS011;53653;52.188;8.602;2023-07-29T02:50:37;7.77;;;3.27;;
66739;SDS011;53653;52.188;8.602;2023-07-29T02:53:02;6.80;;;3.30;;
66739;SDS011;53653;52.188;8.602;2023-07-29T02:55:28;7.97;;;3.30;;
66739;SDS011;53653;52.188;8.602;2023-07-29T02:57:53;7.70;;;3.47;;
66739;SDS011;53653;52.188;8.602;2023-07-29T03:00:19;6.40;;;3.47;;
66739;SDS011;53653;52.188;8.602;2023-07-29T03:02:44;6.83;;;3.63;;
66739;SDS011;53653;52.188;8.602;2023-07-29T03:05:10;7.10;;;3.50;;
66739;SDS011;53653;52.188;8.602;2023-07-29T03:07:35;7.47;;;3.55;;
66739;SDS011;53653;52.188;8.602;2023-07-29T03:10:01;8.03;;;3.70;;
66739;SDS011;53653;52.188;8.602;2023-07-29T03:12:27;6.73;;;3.60;;
66739;SDS011;53653;52.188;8.602;2023-07-29T03:14:52;7.73;;;4.33;;
66739;SDS011;53653;52.188;8.602;2023-07-29T03:17:18;7.10;;;3.70;;
66739;SDS011;53653;52.188;8.602;2023-07-29T03:19:43;7.60;;;3.93;;
66739;SDS011;53653;52.188;8.602;2023-07-29T03:22:09;8.10;;;3.73;;
66739;SDS011;53653;52.188;8.602;2023-07-29T03:24:34;7.77;;;4.00;;
66739;SDS011;53653;52.188;8.602;2023-07-29T03:26:59;7.57;;;3.93;;
66739;SDS011;53653;52.188;8.602;2023-07-29T03:29:25;7.68;;;3.95;;
66739;SDS011;53653;52.188;8.602;2023-07-29T03:31:51;9.20;;;3.90;;
66739;SDS011;53653;52.188;8.602;2023-07-29T03:34:17;8.20;;;4.00;;
66739;SDS011;53653;52.188;8.602;2023-07-29T03:36:45;7.25;;;4.00;;
66739;SDS011;53653;52.188;8.602;2023-07-29T03:39:13;7.40;;;4.00;;
66739;SDS011;53653;52.188;8.602;2023-07-29T03:41:39;8.45;;;4.18;;
66739;SDS011;53653;52.188;8.602;2023-07-29T03:44:04;8.20;;;4.10;;
66739;SDS011;53653;52.188;8.602;2023-07-29T03:46:30;8.60;;;4.10;;
66739;SDS011;53653;52.188;8.602;2023-07-29T03:48:56;7.15;;;4.03;;
66739;SDS011;53653;52.188;8.602;2023-07-29T03:51:22;7.25;;;4.00;;
66739;SDS011;53653;52.188;8.602;2023-07-29T03:53:48;8.93;;;4.47;;
66739;SDS011;53653;52.188;8.602;2023-07-29T03:56:14;7.97;;;4.28;;
66739;SDS011;53653;52.188;8.602;2023-07-29T03:58:39;8.53;;;4.43;;
66739;SDS011;53653;52.188;8.602;2023-07-29T04:01:05;8.13;;;4.20;;
66739;SDS011;53653;52.188;8.602;2023-07-29T04:03:31;7.40;;;4.43;;
66739;SDS011;53653;52.188;8.602;2023-07-29T04:05:58;8.52;;;4.90;;
66739;SDS011;53653;52.188;8.602;2023-07-29T04:08:24;8.38;;;4.20;;
66739;SDS011;53653;52.188;8.602;2023-07-29T04:10:50;8.27;;;4.23;;
66739;SDS011;53653;52.188;8.602;2023-07-29T04:13:15;7.10;;;3.97;;
66739;SDS011;53653;52.188;8.602;2023-07-29T04:15:41;7.50;;;4.13;;
66739;SDS011;53653;52.188;8.602;2023-07-29T04:18:06;7.00;;;4.10;;
66739;SDS011;53653;52.188;8.602;2023-07-29T04:20:32;8.25;;;3.83;;
66739;SDS011;53653;52.188;8.602;2023-07-29T04:22:58;7.95;;;4.10;;
66739;SDS011;53653;52.188;8.602;2023-07-29T04:25:24;7.63;;;3.90;;
66739;SDS011;53653;52.188;8.602;2023-07-29T04:27:50;7.40;;;3.70;;
66739;SDS011;53653;52.188;8.602;2023-07-29T04:30:15;7.20;;;3.85;;
66739;SDS011;53653;52.188;8.602;2023-07-29T04:32:41;8.83;;;3.87;;
66739;SDS011;53653;52.188;8.602;2023-07-29T04:35:07;7.35;;;3.75;;
66739;SDS011;53653;52.188;8.602;2023-07-29T04:37:35;7.78;;;3.85;;
66739;SDS011;53653;52.188;8.602;2023-07-29T04:40:01;7.93;;;4.40;;
66739;SDS011;53653;52.188;8.602;2023-07-29T04:42:27;7.00;;;3.85;;
66739;SDS011;53653;52.188;8.602;2023-07-29T04:44:52;6.50;;;3.70;;
66739;SDS011;53653;52.188;8.602;2023-07-29T04:47:18;6.67;;;3.60;;
66739;SDS011;53653;52.188;8.602;2023-07-29T04:49:43;7.97;;;3.80;;
66739;SDS011;53653;52.188;8.602;2023-07-29T04:52:09;6.90;;;3.70;;
66739;SDS011;53653;52.188;8.602;2023-07-29T04:54:34;6.43;;;3.53;;
66739;SDS011;53653;52.188;8.602;2023-07-29T04:56:59;6.75;;;3.50;;
66739;SDS011;53653;52.188;8.602;2023-07-29T04:59:26;8.40;;;3.50;;
66739;SDS011;53653;52.188;8.602;2023-07-29T05:01:52;6.15;;;3.30;;
66739;SDS011;53653;52.188;8.602;2023-07-29T05:04:17;5.80;;;3.00;;
66739;SDS011;53653;52.188;8.602;2023-07-29T05:06:43;7.87;;;3.80;;
66739;SDS011;53653;52.188;8.602;2023-07-29T05:09:15;7.63;;;3.63;;
66739;SDS011;53653;52.188;8.602;2023-07-29T05:11:41;6.07;;;3.03;;
66739;SDS011;53653;52.188;8.602;2023-07-29T05:14:08;6.70;;;3.45;;
66739;SDS011;53653;52.188;8.602;2023-07-29T05:16:34;8.02;;;2.72;;
66739;SDS011;53653;52.188;8.602;2023-07-29T05:19:01;8.00;;;2.90;;
66739;SDS011;53653;52.188;8.602;2023-07-29T05:21:26;6.20;;;3.00;;
66739;SDS011;53653;52.188;8.602;2023-07-29T05:23:52;6.07;;;2.90;;
66739;SDS011;53653;52.188;8.602;2023-07-29T05:26:17;7.25;;;3.50;;
66739;SDS011;53653;52.188;8.602;2023-07-29T05:28:43;6.73;;;3.23;;
66739;SDS011;53653;52.188;8.602;2023-07-29T05:31:08;5.90;;;3.00;;
66739;SDS011;53653;52.188;8.602;2023-07-29T05:33:34;7.63;;;3.10;;
66739;SDS011;53653;52.188;8.602;2023-07-29T05:36:01;6.97;;;2.97;;
66739;SDS011;53653;52.188;8.602;2023-07-29T05:38:27;5.55;;;2.88;;
66739;SDS011;53653;52.188;8.602;2023-07-29T05:40:52;5.33;;;2.63;;
66739;SDS011;53653;52.188;8.602;2023-07-29T05:43:18;7.57;;;3.00;;
66739;SDS011;53653;52.188;8.602;2023-07-29T05:45:43;8.43;;;3.50;;
66739;SDS011;53653;52.188;8.602;2023-07-29T05:48:09;7.00;;;3.17;;
66739;SDS011;53653;52.188;8.602;2023-07-29T05:50:34;5.77;;;2.90;;
66739;SDS011;53653;52.188;8.602;2023-07-29T05:53:00;6.53;;;3.10;;
66739;SDS011;53653;52.188;8.602;2023-07-29T05:55:25;7.50;;;3.30;;
66739;SDS011;53653;52.188;8.602;2023-07-29T05:57:51;6.50;;;3.37;;
66739;SDS011;53653;52.188;8.602;2023-07-29T06:00:17;7.38;;;3.40;;
66739;SDS011;53653;52.188;8.602;2023-07-29T06:02:44;6.68;;;3.70;;
66739;SDS011;53653;52.188;8.602;2023-07-29T06:05:14;7.03;;;3.60;;
66739;SDS011;53653;52.188;8.602;2023-07-29T06:07:40;7.07;;;3.27;;
66739;SDS011;53653;52.188;8.602;2023-07-29T06:10:13;7.18;;;3.17;;
66739;SDS011;53653;52.188;8.602;2023-07-29T06:12:43;5.70;;;3.13;;
66739;SDS011;53653;52.188;8.602;2023-07-29T06:15:08;8.23;;;3.00;;
66739;SDS011;53653;52.188;8.602;2023-07-29T06:17:34;7.73;;;3.10;;
66739;SDS011;53653;52.188;8.602;2023-07-29T06:19:59;12.17;;;3.30;;
66739;SDS011;53653;52.188;8.602;2023-07-29T06:22:26;9.50;;;2.73;;
66739;SDS011;53653;52.188;8.602;2023-07-29T06:24:51;7.68;;;3.35;;
66739;SDS011;53653;52.188;8.602;2023-07-29T06:27:17;7.70;;;3.30;;
66739;SDS011;53653;52.188;8.602;2023-07-29T06:29:42;6.60;;;2.90;;
66739;SDS011;53653;52.188;8.602;2023-07-29T06:32:07;6.77;;;3.27;;
66739;SDS011;53653;52.188;8.602;2023-07-29T06:34:33;8.50;;;3.10;;
66739;SDS011;53653;52.188;8.602;2023-07-29T06:36:58;6.40;;;2.97;;
66739;SDS011;53653;52.188;8.602;2023-07-29T06:39:24;7.10;;;3.27;;
66739;SDS011;53653;52.188;8.602;2023-07-29T06:41:49;7.55;;;3.53;;
66739;SDS011;53653;52.188;8.602;2023-07-29T06:44:17;8.50;;;4.57;;
66739;SDS011;53653;52.188;8.602;2023-07-29T06:46:42;11.68;;;6.40;;
66739;SDS011;53653;52.188;8.602;2023-07-29T06:49:08;11.00;;;6.73;;
66739;SDS011;53653;52.188;8.602;2023-07-29T06:51:33;10.20;;;6.10;;
66739;SDS011;53653;52.188;8.602;2023-07-29T06:54:00;15.68;;;7.65;;
66739;SDS011;53653;52.188;8.602;2023-07-29T06:56:27;12.95;;;8.20;;
66739;SDS011;53653;52.188;8.602;2023-07-29T06:58:52;13.63;;;9.00;;
66739;SDS011;53653;52.188;8.602;2023-07-29T07:01:18;15.23;;;8.60;;
66739;SDS011;53653;52.188;8.602;2023-07-29T07:03:43;14.10;;;8.23;;
66739;SDS011;53653;52.188;8.602;2023-07-29T07:06:09;13.23;;;8.40;;
66739;SDS011;53653;52.188;8.602;2023-07-29T07:08:34;14.03;;;8.37;;
66739;SDS011;53653;52.188;8.602;2023-07-29T07:11:00;14.17;;;8.43;;
66739;SDS011;53653;52.188;8.602;2023-07-29T07:13:25;15.33;;;9.33;;
66739;SDS011;53653;52.188;8.602;2023-07-29T07:15:50;18.50;;;8.80;;
66739;SDS011;53653;52.188;8.602;2023-07-29T07:18:19;14.10;;;8.30;;
66739;SDS011;53653;52.188;8.602;2023-07-29T07:20:50;15.18;;;8.70;;
66739;SDS011;53653;52.188;8.602;2023-07-29T07:23:16;16.65;;;9.48;;
66739;SDS011;53653;52.188;8.602;2023-07-29T07:25:42;18.03;;;10.90;;
66739;SDS011;53653;52.188;8.602;2023-07-29T07:28:08;20.10;;;10.38;;
66739;SDS011;53653;52.188;8.602;2023-07-29T07:30:34;20.60;;;11.45;;
66739;SDS011;53653;52.188;8.602;2023-07-29T07:33:00;22.30;;;12.43;;
66739;SDS011;53653;52.188;8.602;2023-07-29T07:35:26;23.55;;;11.27;;
66739;SDS011;53653;52.188;8.602;2023-07-29T07:37:51;22.47;;;11.70;;
66739;SDS011;53653;52.188;8.602;2023-07-29T07:40:17;22.27;;;13.10;;
66739;SDS011;53653;52.188;8.602;2023-07-29T07:42:43;22.83;;;11.70;;
66739;SDS011;53653;52.188;8.602;2023-07-29T07:45:08;21.00;;;11.73;;
66739;SDS011;53653;52.188;8.602;2023-07-29T07:47:34;20.30;;;11.20;;
66739;SDS011;53653;52.188;8.602;2023-07-29T07:49:59;20.02;;;11.18;;
66739;SDS011;53653;52.188;8.602;2023-07-29T07:52:25;19.43;;;10.80;;
66739;SDS011;53653;52.188;8.602;2023-07-29T07:54:54;14.67;;;9.67;;
66739;SDS011;53653;52.188;8.602;2023-07-29T07:57:22;17.17;;;9.98;;
66739;SDS011;53653;52.188;8.602;2023-07-29T07:59:48;19.75;;;9.75;;
66739;SDS011;53653;52.188;8.602;2023-07-29T08:02:14;14.32;;;8.93;;
66739;SDS011;53653;52.188;8.602;2023-07-29T08:04:39;13.90;;;8.57;;
66739;SDS011;53653;52.188;8.602;2023-07-29T08:07:05;14.50;;;7.50;;
66739;SDS011;53653;52.188;8.602;2023-07-29T08:09:30;12.07;;;7.38;;
66739;SDS011;53653;52.188;8.602;2023-07-29T08:11:56;10.77;;;6.57;;
66739;SDS011;53653;52.188;8.602;2023-07-29T08:14:21;9.43;;;6.37;;
66739;SDS011;53653;52.188;8.602;2023-07-29T08:16:47;9.45;;;5.57;;
66739;SDS011;53653;52.188;8.602;2023-07-29T08:19:12;10.63;;;6.77;;
66739;SDS011;53653;52.188;8.602;2023-07-29T08:21:38;9.40;;;5.63;;
66739;SDS011;53653;52.188;8.602;2023-07-29T08:24:03;9.18;;;5.00;;
66739;SDS011;53653;52.188;8.602;2023-07-29T08:26:29;9.23;;;5.70;;
66739;SDS011;53653;52.188;8.602;2023-07-29T08:28:54;9.27;;;5.17;;
66739;SDS011;53653;52.188;8.602;2023-07-29T08:31:20;9.00;;;5.10;;
66739;SDS011;53653;52.188;8.602;2023-07-29T08:33:45;8.13;;;5.10;;
66739;SDS011;53653;52.188;8.602;2023-07-29T08:36:11;8.63;;;4.43;;
66739;SDS011;53653;52.188;8.602;2023-07-29T08:38:36;7.50;;;4.43;;
66739;SDS011;53653;52.188;8.602;2023-07-29T08:41:16;9.70;;;4.10;;
66739;SDS011;53653;52.188;8.602;2023-07-29T08:46:51;7.22;;;3.63;;
66739;SDS011;53653;52.188;8.602;2023-07-29T08:49:19;6.30;;;3.50;;
66739;SDS011;53653;52.188;8.602;2023-07-29T08:51:48;8.32;;;3.50;;
66739;SDS011;53653;52.188;8.602;2023-07-29T08:54:14;7.22;;;2.80;;
66739;SDS011;53653;52.188;8.602;2023-07-29T08:56:41;4.95;;;2.03;;
66739;SDS011;53653;52.188;8.602;2023-07-29T08:59:10;4.80;;;2.00;;
66739;SDS011;53653;52.188;8.602;2023-07-29T09:01:41;5.20;;;2.07;;
66739;SDS011;53653;52.188;8.602;2023-07-29T09:04:07;8.27;;;2.20;;
66739;SDS011;53653;52.188;8.602;2023-07-29T09:06:32;4.68;;;1.88;;
66739;SDS011;53653;52.188;8.602;2023-07-29T09:09:00;5.07;;;1.73;;
66739;SDS011;53653;52.188;8.602;2023-07-29T09:11:27;5.30;;;1.90;;
66739;SDS011;53653;52.188;8.602;2023-07-29T09:13:53;5.18;;;2.00;;
66739;SDS011;53653;52.188;8.602;2023-07-29T09:16:19;5.15;;;1.70;;
66739;SDS011;53653;52.188;8.602;2023-07-29T09:18:49;4.63;;;1.80;;
66739;SDS011;53653;52.188;8.602;2023-07-29T09:21:16;5.03;;;1.63;;
66739;SDS011;53653;52.188;8.602;2023-07-29T09:23:43;6.00;;;1.77;;
66739;SDS011;53653;52.188;8.602;2023-07-29T09:26:09;4.40;;;1.50;;
66739;SDS011;53653;52.188;8.602;2023-07-29T09:28:36;4.50;;;1.60;;
66739;SDS011;53653;52.188;8.602;2023-07-29T09:31:03;4.97;;;1.60;;
66739;SDS011;53653;52.188;8.602;2023-07-29T09:33:29;3.57;;;1.20;;
66739;SDS011;53653;52.188;8.602;2023-07-29T09:36:00;4.78;;;1.30;;
66739;SDS011;53653;52.188;8.602;2023-07-29T09:38:26;3.70;;;1.10;;
66739;SDS011;53653;52.188;8.602;2023-07-29T09:40:54;4.38;;;1.40;;
66739;SDS011;53653;52.188;8.602;2023-07-29T09:43:25;4.47;;;1.50;;
66739;SDS011;53653;52.188;8.602;2023-07-29T09:46:00;4.00;;;1.30;;
66739;SDS011;53653;52.188;8.602;2023-07-29T09:48:27;4.47;;;1.38;;
66739;SDS011;53653;52.188;8.602;2023-07-29T09:50:54;4.70;;;1.40;;
66739;SDS011;53653;52.188;8.602;2023-07-29T09:53:20;3.90;;;1.25;;
66739;SDS011;53653;52.188;8.602;2023-07-29T09:55:46;3.63;;;1.20;;
66739;SDS011;53653;52.188;8.602;2023-07-29T09:58:19;4.20;;;1.30;;
66739;SDS011;53653;52.188;8.602;2023-07-29T10:00:50;3.87;;;1.07;;
66739;SDS011;53653;52.188;8.602;2023-07-29T10:03:17;4.30;;;1.30;;
66739;SDS011;53653;52.188;8.602;2023-07-29T10:05:45;4.82;;;1.20;;
66739;SDS011;53653;52.188;8.602;2023-07-29T10:08:11;3.05;;;1.00;;
66739;SDS011;53653;52.188;8.602;2023-07-29T10:10:38;3.88;;;1.20;;
66739;SDS011;53653;52.188;8.602;2023-07-29T10:13:06;5.00;;;1.27;;
66739;SDS011;53653;52.188;8.602;2023-07-29T10:15:32;4.05;;;1.40;;
66739;SDS011;53653;52.188;8.602;2023-07-29T10:17:58;4.43;;;1.15;;
66739;SDS011;53653;52.188;8.602;2023-07-29T10:20:24;3.78;;;1.13;;
66739;SDS011;53653;52.188;8.602;2023-07-29T10:22:50;3.53;;;1.10;;
66739;SDS011;53653;52.188;8.602;2023-07-29T10:25:22;4.28;;;1.17;;
66739;SDS011;53653;52.188;8.602;2023-07-29T10:27:52;4.40;;;1.02;;
66739;SDS011;53653;52.188;8.602;2023-07-29T10:30:21;4.28;;;1.20;;
66739;SDS011;53653;52.188;8.602;2023-07-29T10:32:49;3.83;;;1.23;;
66739;SDS011;53653;52.188;8.602;2023-07-29T10:35:15;5.28;;;1.38;;
66739;SDS011;53653;52.188;8.602;2023-07-29T10:37:41;3.92;;;1.10;;
66739;SDS011;53653;52.188;8.602;2023-07-29T10:40:08;4.10;;;1.23;;
66739;SDS011;53653;52.188;8.602;2023-07-29T10:42:35;4.68;;;1.23;;
66739;SDS011;53653;52.188;8.602;2023-07-29T10:45:17;3.70;;;1.10;;
66739;SDS011;53653;52.188;8.602;2023-07-29T10:47:44;3.45;;;1.33;;
66739;SDS011;53653;52.188;8.602;2023-07-29T10:50:20;3.97;;;1.00;;
66739;SDS011;53653;52.188;8.602;2023-07-29T10:52:50;3.58;;;1.15;;
66739;SDS011;53653;52.188;8.602;2023-07-29T10:57:50;5.00;;;1.20;;
66739;SDS011;53653;52.188;8.602;2023-07-29T11:00:16;4.05;;;1.20;;
66739;SDS011;53653;52.188;8.602;2023-07-29T11:02:46;6.30;;;1.20;;
66739;SDS011;53653;52.188;8.602;2023-07-29T11:05:24;3.63;;;1.07;;
66739;SDS011;53653;52.188;8.602;2023-07-29T11:07:49;4.05;;;1.02;;
66739;SDS011;53653;52.188;8.602;2023-07-29T11:10:15;4.37;;;1.00;;
66739;SDS011;53653;52.188;8.602;2023-07-29T11:15:17;5.13;;;1.10;;
66739;SDS011;53653;52.188;8.602;2023-07-29T11:17:45;4.13;;;1.00;;
66739;SDS011;53653;52.188;8.602;2023-07-29T11:20:16;3.20;;;1.00;;
66739;SDS011;53653;52.188;8.602;2023-07-29T11:22:43;4.40;;;1.10;;
66739;SDS011;53653;52.188;8.602;2023-07-29T11:25:09;3.95;;;1.00;;
66739;SDS011;53653;52.188;8.602;2023-07-29T11:27:36;4.57;;;1.30;;
66739;SDS011;53653;52.188;8.602;2023-07-29T11:30:06;3.45;;;0.90;;
66739;SDS011;53653;52.188;8.602;2023-07-29T11:32:34;4.93;;;1.80;;
66739;SDS011;53653;52.188;8.602;2023-07-29T11:35:07;3.95;;;1.20;;
66739;SDS011;53653;52.188;8.602;2023-07-29T11:37:35;3.55;;;0.95;;
66739;SDS011;53653;52.188;8.602;2023-07-29T11:40:02;3.92;;;0.98;;
66739;SDS011;53653;52.188;8.602;2023-07-29T11:42:28;4.50;;;1.63;;
66739;SDS011;53653;52.188;8.602;2023-07-29T11:44:57;4.33;;;1.40;;
66739;SDS011;53653;52.188;8.602;2023-07-29T11:47:23;4.63;;;1.40;;
66739;SDS011;53653;52.188;8.602;2023-07-29T11:49:49;3.90;;;1.20;;
66739;SDS011;53653;52.188;8.602;2023-07-29T11:52:15;3.73;;;1.00;;
66739;SDS011;53653;52.188;8.602;2023-07-29T11:54:44;3.55;;;1.00;;
66739;SDS011;53653;52.188;8.602;2023-07-29T11:57:10;4.85;;;1.35;;
66739;SDS011;53653;52.188;8.602;2023-07-29T11:59:37;5.32;;;1.30;;
66739;SDS011;53653;52.188;8.602;2023-07-29T12:02:18;3.50;;;1.30;;
66739;SDS011;53653;52.188;8.602;2023-07-29T12:04:46;4.63;;;1.20;;
66739;SDS011;53653;52.188;8.602;2023-07-29T12:07:12;3.90;;;1.10;;
66739;SDS011;53653;52.188;8.602;2023-07-29T12:09:40;3.97;;;1.17;;
66739;SDS011;53653;52.188;8.602;2023-07-29T12:12:07;3.75;;;1.30;;
66739;SDS011;53653;52.188;8.602;2023-07-29T12:14:33;4.40;;;1.13;;
66739;SDS011;53653;52.188;8.602;2023-07-29T12:17:00;4.75;;;1.20;;
66739;SDS011;53653;52.188;8.602;2023-07-29T12:22:00;3.95;;;1.10;;
66739;SDS011;53653;52.188;8.602;2023-07-29T12:24:30;5.28;;;1.35;;
66739;SDS011;53653;52.188;8.602;2023-07-29T12:26:56;4.27;;;1.33;;
66739;SDS011;53653;52.188;8.602;2023-07-29T12:29:22;4.60;;;1.30;;
66739;SDS011;53653;52.188;8.602;2023-07-29T12:31:48;3.65;;;1.20;;
66739;SDS011;53653;52.188;8.602;2023-07-29T12:34:21;5.15;;;1.20;;
66739;SDS011;53653;52.188;8.602;2023-07-29T12:39:19;4.30;;;1.50;;
66739;SDS011;53653;52.188;8.602;2023-07-29T12:41:50;4.10;;;1.40;;
66739;SDS011;53653;52.188;8.602;2023-07-29T12:44:17;5.80;;;1.48;;
66739;SDS011;53653;52.188;8.602;2023-07-29T12:46:43;6.07;;;1.60;;
66739;SDS011;53653;52.188;8.602;2023-07-29T12:49:09;4.72;;;1.40;;
66739;SDS011;53653;52.188;8.602;2023-07-29T12:51:35;4.50;;;1.60;;
66739;SDS011;53653;52.188;8.602;2023-07-29T12:54:01;4.03;;;1.40;;
66739;SDS011;53653;52.188;8.602;2023-07-29T12:56:28;4.20;;;1.50;;
66739;SDS011;53653;52.188;8.602;2023-07-29T12:58:54;4.45;;;1.50;;
66739;SDS011;53653;52.188;8.602;2023-07-29T13:01:20;4.00;;;1.40;;
66739;SDS011;53653;52.188;8.602;2023-07-29T13:03:45;4.00;;;1.43;;
66739;SDS011;53653;52.188;8.602;2023-07-29T13:06:12;4.27;;;1.40;;
66739;SDS011;53653;52.188;8.602;2023-07-29T13:08:38;4.55;;;1.63;;
66739;SDS011;53653;52.188;8.602;2023-07-29T13:11:04;3.70;;;1.17;;
66739;SDS011;53653;52.188;8.602;2023-07-29T13:13:30;6.10;;;1.60;;
66739;SDS011;53653;52.188;8.602;2023-07-29T13:15:56;4.68;;;1.38;;
66739;SDS011;53653;52.188;8.602;2023-07-29T13:18:22;4.37;;;1.40;;
66739;SDS011;53653;52.188;8.602;2023-07-29T13:20:48;4.28;;;1.30;;
66739;SDS011;53653;52.188;8.602;2023-07-29T13:23:13;4.10;;;1.50;;
66739;SDS011;53653;52.188;8.602;2023-07-29T13:25:39;3.90;;;1.40;;
66739;SDS011;53653;52.188;8.602;2023-07-29T13:28:04;4.50;;;1.70;;
66739;SDS011;53653;52.188;8.602;2023-07-29T13:30:30;4.63;;;1.60;;
66739;SDS011;53653;52.188;8.602;2023-07-29T13:32:56;4.15;;;1.60;;
66739;SDS011;53653;52.188;8.602;2023-07-29T13:35:21;6.17;;;1.50;;
66739;SDS011;53653;52.188;8.602;2023-07-29T13:37:47;5.93;;;1.50;;
66739;SDS011;53653;52.188;8.602;2023-07-29T13:40:12;5.13;;;1.70;;
66739;SDS011;53653;52.188;8.602;2023-07-29T13:42:38;4.73;;;1.80;;
66739;SDS011;53653;52.188;8.602;2023-07-29T13:45:04;4.53;;;1.60;;
66739;SDS011;53653;52.188;8.602;2023-07-29T13:47:30;5.70;;;1.85;;
66739;SDS011;53653;52.188;8.602;2023-07-29T13:49:55;5.73;;;1.80;;
66739;SDS011;53653;52.188;8.602;2023-07-29T13:52:21;4.50;;;1.70;;
66739;SDS011;53653;52.188;8.602;2023-07-29T13:54:46;5.90;;;1.80;;
66739;SDS011;53653;52.188;8.602;2023-07-29T13:57:12;4.50;;;1.73;;
66739;SDS011;53653;52.188;8.602;2023-07-29T13:59:37;4.93;;;1.60;;
66739;SDS011;53653;52.188;8.602;2023-07-29T14:02:06;5.00;;;1.80;;
66739;SDS011;53653;52.188;8.602;2023-07-29T14:04:32;4.38;;;1.70;;
66739;SDS011;53653;52.188;8.602;2023-07-29T14:06:58;5.47;;;2.17;;
66739;SDS011;53653;52.188;8.602;2023-07-29T14:09:24;6.63;;;2.10;;
66739;SDS011;53653;52.188;8.602;2023-07-29T14:11:50;6.47;;;1.90;;
66739;SDS011;53653;52.188;8.602;2023-07-29T14:14:16;4.53;;;1.80;;
66739;SDS011;53653;52.188;8.602;2023-07-29T14:16:41;5.00;;;2.00;;
66739;SDS011;53653;52.188;8.602;2023-07-29T14:19:07;5.77;;;2.77;;
66739;SDS011;53653;52.188;8.602;2023-07-29T14:21:32;4.88;;;1.95;;
66739;SDS011;53653;52.188;8.602;2023-07-29T14:23:58;4.60;;;2.00;;
66739;SDS011;53653;52.188;8.602;2023-07-29T14:26:23;4.43;;;2.03;;
66739;SDS011;53653;52.188;8.602;2023-07-29T14:28:49;4.55;;;1.80;;
66739;SDS011;53653;52.188;8.602;2023-07-29T14:31:16;4.45;;;1.80;;
66739;SDS011;53653;52.188;8.602;2023-07-29T14:33:42;5.03;;;1.98;;
66739;SDS011;53653;52.188;8.602;2023-07-29T14:36:09;4.40;;;1.90;;
66739;SDS011;53653;52.188;8.602;2023-07-29T14:38:34;4.95;;;2.00;;
66739;SDS011;53653;52.188;8.602;2023-07-29T14:41:00;4.45;;;1.67;;
66739;SDS011;53653;52.188;8.602;2023-07-29T14:43:26;5.17;;;2.03;;
66739;SDS011;53653;52.188;8.602;2023-07-29T14:45:51;4.90;;;1.90;;
66739;SDS011;53653;52.188;8.602;2023-07-29T14:48:17;5.25;;;2.10;;
66739;SDS011;53653;52.188;8.602;2023-07-29T14:50:43;4.53;;;1.83;;
66739;SDS011;53653;52.188;8.602;2023-07-29T14:53:09;5.15;;;2.17;;
66739;SDS011;53653;52.188;8.602;2023-07-29T14:55:36;5.70;;;2.22;;
66739;SDS011;53653;52.188;8.602;2023-07-29T14:58:02;5.82;;;2.28;;
66739;SDS011;53653;52.188;8.602;2023-07-29T15:00:27;4.80;;;2.00;;
66739;SDS011;53653;52.188;8.602;2023-07-29T15:02:53;5.70;;;2.17;;
66739;SDS011;53653;52.188;8.602;2023-07-29T15:05:18;6.30;;;2.00;;